createdAt,value
2023-05-07T00:00:49.588Z,14.90
2023-05-07T00:03:16.692Z,14.90
2023-05-07T00:05:43.709Z,14.90
2023-05-07T00:08:10.858Z,14.80
2023-05-07T00:10:37.803Z,14.80
2023-05-07T00:13:04.770Z,14.80
2023-05-07T00:15:31.844Z,14.80
2023-05-07T00:18:00.532Z,14.80
2023-05-07T00:20:28.193Z,14.80
2023-05-07T00:22:55.457Z,14.90
2023-05-07T00:25:22.508Z,14.80
2023-05-07T00:27:49.558Z,14.80
2023-05-07T00:30:17.046Z,14.80
2023-05-07T00:32:46.557Z,14.90
2023-05-07T00:35:13.794Z,14.80
2023-05-07T00:37:40.743Z,14.90
2023-05-07T00:40:09.732Z,14.80
2023-05-07T00:42:37.862Z,14.90
2023-05-07T00:45:05.362Z,14.90
2023-05-07T00:47:32.701Z,14.80
2023-05-07T00:50:00.641Z,14.80
2023-05-07T00:52:28.768Z,14.80
2023-05-07T00:54:56.192Z,14.90
2023-05-07T00:57:25.128Z,14.80
2023-05-07T00:59:52.958Z,14.80
2023-05-07T01:02:20.004Z,14.80
2023-05-07T01:04:46.982Z,14.80
2023-05-07T01:07:15.458Z,14.80
2023-05-07T01:09:42.416Z,14.80
2023-05-07T01:12:10.223Z,14.80
2023-05-07T01:14:37.484Z,14.80
2023-05-07T01:17:04.642Z,14.80
2023-05-07T01:19:32.368Z,14.80
2023-05-07T01:22:09.619Z,14.80
2023-05-07T01:24:47.197Z,14.80
2023-05-07T01:27:16.145Z,14.80
2023-05-07T01:29:43.764Z,14.80
2023-05-07T01:32:12.746Z,14.70
2023-05-07T01:34:40.935Z,14.80
2023-05-07T01:37:08.002Z,14.80
2023-05-07T01:39:34.969Z,14.80
2023-05-07T01:42:02.691Z,14.80
2023-05-07T01:44:29.917Z,14.70
2023-05-07T01:46:58.227Z,14.70
2023-05-07T01:49:25.427Z,14.70
2023-05-07T01:51:53.216Z,14.70
2023-05-07T01:54:21.660Z,14.60
2023-05-07T01:56:49.988Z,14.60
2023-05-07T01:59:17.331Z,14.70
2023-05-07T02:01:44.454Z,14.60
2023-05-07T02:04:12.487Z,14.60
2023-05-07T02:06:39.700Z,14.60
2023-05-07T02:09:10.006Z,14.50
2023-05-07T02:11:38.272Z,14.50
2023-05-07T02:14:05.926Z,14.50
2023-05-07T02:16:32.967Z,14.60
2023-05-07T02:19:00.124Z,14.50
2023-05-07T02:21:29.394Z,14.50
2023-05-07T02:23:57.476Z,14.50
2023-05-07T02:26:24.638Z,14.50
2023-05-07T02:28:51.875Z,14.40
2023-05-07T02:31:19.365Z,14.40
2023-05-07T02:33:47.914Z,14.40
2023-05-07T02:36:15.784Z,14.40
2023-05-07T02:38:57.804Z,14.30
2023-05-07T02:41:24.991Z,14.40
2023-05-07T02:43:51.968Z,14.40
2023-05-07T02:46:19.576Z,14.30
2023-05-07T02:48:52.140Z,14.30
2023-05-07T02:51:24.146Z,14.30
2023-05-07T02:53:54.057Z,14.30
2023-05-07T02:56:22.681Z,14.30
2023-05-07T02:58:49.657Z,14.30
2023-05-07T03:01:18.282Z,14.30
2023-05-07T03:03:52.086Z,14.40
2023-05-07T03:06:21.205Z,14.30
2023-05-07T03:08:48.239Z,14.30
2023-05-07T03:11:15.711Z,14.30
2023-05-07T03:13:42.620Z,14.30
2023-05-07T03:16:09.701Z,14.30
2023-05-07T03:18:36.763Z,14.30
2023-05-07T03:21:03.932Z,14.30
2023-05-07T03:23:31.170Z,14.30
2023-05-07T03:25:58.132Z,14.30
2023-05-07T03:28:25.040Z,14.20
2023-05-07T03:30:57.569Z,14.20
2023-05-07T03:33:24.755Z,14.20
2023-05-07T03:35:51.774Z,14.20
2023-05-07T03:38:23.296Z,14.20
2023-05-07T03:40:50.749Z,14.20
2023-05-07T03:43:18.496Z,14.20
2023-05-07T03:45:50.620Z,14.20
2023-05-07T03:48:23.236Z,14.20
2023-05-07T03:50:53.324Z,14.20
2023-05-07T03:53:21.614Z,14.20
2023-05-07T03:55:48.923Z,14.20
2023-05-07T03:58:16.493Z,14.20
2023-05-07T04:00:43.725Z,14.10
2023-05-07T04:03:20.059Z,14.20
2023-05-07T04:05:47.928Z,14.20
2023-05-07T04:08:15.272Z,14.20
2023-05-07T04:10:46.970Z,14.20
2023-05-07T04:13:14.699Z,14.10
2023-05-07T04:15:42.689Z,14.20
2023-05-07T04:18:12.149Z,14.10
2023-05-07T04:20:41.282Z,14.10
2023-05-07T04:23:12.580Z,14.10
2023-05-07T04:25:40.266Z,14.10
2023-05-07T04:28:21.772Z,14.10
2023-05-07T04:30:49.141Z,14.10
2023-05-07T04:33:19.556Z,14.10
2023-05-07T04:35:47.834Z,14.20
2023-05-07T04:38:15.815Z,14.20
2023-05-07T04:40:43.457Z,14.20
2023-05-07T04:43:14.328Z,14.20
2023-05-07T04:45:46.833Z,14.20
2023-05-07T04:48:15.750Z,14.20
2023-05-07T04:50:42.835Z,14.20
2023-05-07T04:53:11.347Z,14.20
2023-05-07T04:55:38.513Z,14.30
2023-05-07T04:58:08.668Z,14.30
2023-05-07T05:00:37.876Z,14.30
2023-05-07T05:03:10.102Z,14.30
2023-05-07T05:05:39.305Z,14.30
2023-05-07T05:08:06.887Z,14.20
2023-05-07T05:10:39.666Z,14.20
2023-05-07T05:13:07.578Z,14.30
2023-05-07T05:15:35.704Z,14.30
2023-05-07T05:18:04.207Z,14.30
2023-05-07T05:20:31.794Z,14.30
2023-05-07T05:22:59.151Z,14.30
2023-05-07T05:25:26.332Z,14.30
2023-05-07T05:27:53.326Z,14.30
2023-05-07T05:30:21.299Z,14.30
2023-05-07T05:32:49.675Z,14.30
2023-05-07T05:35:16.979Z,14.40
2023-05-07T05:37:44.847Z,14.30
2023-05-07T05:40:13.479Z,14.30
2023-05-07T05:42:40.719Z,14.30
2023-05-07T05:45:09.339Z,14.30
2023-05-07T05:47:36.402Z,14.40
2023-05-07T05:50:03.625Z,14.40
2023-05-07T05:52:30.827Z,14.40
2023-05-07T05:54:58.394Z,14.40
2023-05-07T05:57:28.619Z,14.40
2023-05-07T05:59:56.828Z,14.50
2023-05-07T06:02:25.000Z,14.50
2023-05-07T06:04:52.276Z,14.50
2023-05-07T06:07:21.309Z,14.50
2023-05-07T06:09:48.810Z,14.60
2023-05-07T06:12:16.653Z,14.60
2023-05-07T06:14:46.522Z,14.60
2023-05-07T06:17:13.595Z,14.60
2023-05-07T06:19:40.642Z,14.70
2023-05-07T06:22:10.202Z,14.70
2023-05-07T06:24:37.222Z,14.70
2023-05-07T06:27:06.605Z,14.80
2023-05-07T06:29:34.478Z,14.70
2023-05-07T06:32:10.885Z,14.80
2023-05-07T06:34:40.458Z,14.80
2023-05-07T06:37:09.676Z,14.80
2023-05-07T06:39:53.941Z,14.90
2023-05-07T06:42:21.019Z,14.90
2023-05-07T06:44:49.774Z,14.90
2023-05-07T06:47:18.467Z,14.90
2023-05-07T06:49:50.483Z,15.00
2023-05-07T06:52:19.601Z,15.00
2023-05-07T06:54:48.678Z,15.00
2023-05-07T06:57:17.717Z,15.00
2023-05-07T06:59:44.744Z,15.00
2023-05-07T07:02:12.901Z,15.10
2023-05-07T07:04:41.370Z,15.10
2023-05-07T07:07:11.052Z,15.20
2023-05-07T07:09:39.604Z,15.20
2023-05-07T07:12:08.315Z,15.20
2023-05-07T07:14:37.704Z,15.20
2023-05-07T07:17:06.254Z,15.30
2023-05-07T07:19:34.349Z,15.20
2023-05-07T07:22:03.569Z,15.40
2023-05-07T07:24:30.671Z,15.40
2023-05-07T07:27:01.652Z,15.50
2023-05-07T07:29:29.026Z,15.60
2023-05-07T07:31:56.466Z,15.60
2023-05-07T07:34:24.052Z,15.60
2023-05-07T07:36:51.497Z,15.70
2023-05-07T07:39:20.128Z,15.80
2023-05-07T07:41:50.861Z,15.70
2023-05-07T07:44:19.209Z,15.90
2023-05-07T07:46:51.868Z,15.90
2023-05-07T07:49:20.377Z,15.90
2023-05-07T07:51:48.106Z,16.00
2023-05-07T07:54:15.489Z,16.00
2023-05-07T07:56:42.644Z,16.10
2023-05-07T07:59:11.197Z,16.10
2023-05-07T08:01:40.879Z,16.20
2023-05-07T08:04:08.776Z,16.30
2023-05-07T08:06:39.349Z,16.30
2023-05-07T08:09:09.437Z,16.30
2023-05-07T08:11:37.365Z,16.40
2023-05-07T08:14:05.278Z,16.50
2023-05-07T08:16:32.655Z,16.60
2023-05-07T08:19:01.358Z,16.60
2023-05-07T08:21:28.502Z,16.70
2023-05-07T08:23:55.453Z,16.80
2023-05-07T08:26:22.484Z,16.90
2023-05-07T08:28:49.623Z,17.00
2023-05-07T08:31:17.043Z,17.10
2023-05-07T08:33:45.765Z,17.20
2023-05-07T08:36:12.782Z,17.30
2023-05-07T08:38:41.795Z,17.60
2023-05-07T08:41:11.432Z,17.70
2023-05-07T08:43:42.628Z,17.70
2023-05-07T08:46:12.465Z,17.90
2023-05-07T08:48:43.217Z,17.90
2023-05-07T08:51:14.685Z,18.00
2023-05-07T08:53:42.870Z,18.00
2023-05-07T08:56:13.438Z,18.00
2023-05-07T08:58:41.056Z,18.10
2023-05-07T09:01:10.801Z,18.20
2023-05-07T09:03:40.569Z,18.50
2023-05-07T09:06:07.839Z,18.50
2023-05-07T09:08:36.248Z,18.60
2023-05-07T09:11:06.311Z,18.50
2023-05-07T09:13:33.810Z,18.50
2023-05-07T09:16:13.302Z,18.60
2023-05-07T09:18:46.298Z,18.60
2023-05-07T09:21:18.743Z,18.50
2023-05-07T09:23:53.474Z,18.70
2023-05-07T09:26:23.802Z,18.80
2023-05-07T09:28:51.463Z,18.80
2023-05-07T09:31:21.084Z,19.00
2023-05-07T09:33:48.641Z,19.00
2023-05-07T09:36:20.108Z,19.10
2023-05-07T09:38:47.333Z,19.10
2023-05-07T09:41:15.727Z,19.10
2023-05-07T09:43:59.724Z,19.20
2023-05-07T09:46:33.523Z,19.30
2023-05-07T09:49:22.320Z,19.40
2023-05-07T09:51:53.621Z,19.40
2023-05-07T09:54:23.996Z,19.40
2023-05-07T09:56:57.152Z,19.50
2023-05-07T09:59:30.526Z,19.40
2023-05-07T10:02:04.873Z,19.30
2023-05-07T10:04:36.911Z,19.40
2023-05-07T10:07:06.642Z,19.40
2023-05-07T10:09:34.718Z,19.40
2023-05-07T10:12:02.274Z,19.40
2023-05-07T10:14:30.788Z,19.50
2023-05-07T10:16:58.743Z,19.50
2023-05-07T10:19:28.985Z,19.60
2023-05-07T10:22:03.974Z,19.40
2023-05-07T10:24:40.637Z,19.60
2023-05-07T10:27:16.977Z,19.70
2023-05-07T10:29:56.827Z,19.70
2023-05-07T10:32:52.643Z,19.60
2023-05-07T10:35:30.642Z,19.60
2023-05-07T10:37:58.883Z,19.70
2023-05-07T10:40:28.649Z,19.80
2023-05-07T10:43:08.604Z,19.80
2023-05-07T10:45:42.847Z,19.80
2023-05-07T10:51:24.591Z,19.80
2023-05-07T10:54:11.929Z,19.80
2023-05-07T10:56:44.986Z,19.80
2023-05-07T10:59:35.291Z,20.00
2023-05-07T11:02:18.293Z,20.10
2023-05-07T11:05:35.777Z,20.00
2023-05-07T11:08:24.756Z,19.90
2023-05-07T11:11:07.286Z,19.90
2023-05-07T11:13:52.530Z,20.00
2023-05-07T11:16:38.160Z,20.10
2023-05-07T11:19:53.597Z,20.10
2023-05-07T11:22:41.952Z,20.10
2023-05-07T11:25:26.685Z,20.20
2023-05-07T11:28:17.429Z,20.20
2023-05-07T11:30:51.623Z,20.20
2023-05-07T11:33:23.766Z,20.30
2023-05-07T11:35:54.847Z,20.40
2023-05-07T11:38:25.748Z,20.20
2023-05-07T11:41:01.683Z,20.10
2023-05-07T11:43:29.060Z,20.20
2023-05-07T11:45:56.202Z,20.30
2023-05-07T11:48:23.949Z,20.30
2023-05-07T11:51:00.472Z,20.30
2023-05-07T11:53:29.376Z,20.30
2023-05-07T11:55:59.448Z,20.30
2023-05-07T11:58:26.727Z,20.40
2023-05-07T12:00:55.222Z,20.40
2023-05-07T12:03:22.352Z,20.40
2023-05-07T12:05:49.721Z,20.30
2023-05-07T12:08:17.449Z,20.30
2023-05-07T12:10:45.579Z,20.30
2023-05-07T12:13:19.785Z,20.40
2023-05-07T12:15:46.762Z,20.50
2023-05-07T12:18:16.268Z,20.50
2023-05-07T12:20:44.142Z,20.40
2023-05-07T12:23:12.050Z,20.50
2023-05-07T12:25:49.975Z,20.20
2023-05-07T12:28:18.073Z,20.40
2023-05-07T12:30:46.139Z,20.50
2023-05-07T12:33:18.769Z,20.60
2023-05-07T12:35:45.667Z,20.70
2023-05-07T12:38:14.368Z,20.80
2023-05-07T12:40:51.934Z,20.60
2023-05-07T12:43:26.030Z,20.60
2023-05-07T12:45:56.037Z,20.70
2023-05-07T12:48:24.172Z,21.00
2023-05-07T12:50:52.308Z,21.10
2023-05-07T12:53:22.719Z,21.10
2023-05-07T12:55:51.530Z,21.10
2023-05-07T12:58:19.303Z,21.00
2023-05-07T13:00:49.683Z,21.00
2023-05-07T13:03:31.614Z,21.30
2023-05-07T13:06:04.618Z,21.10
2023-05-07T13:08:38.468Z,21.00
2023-05-07T13:11:06.471Z,21.20
2023-05-07T13:13:35.365Z,21.30
2023-05-07T13:16:03.494Z,21.30
2023-05-07T13:18:35.032Z,21.30
2023-05-07T13:21:02.790Z,21.20
2023-05-07T13:23:29.966Z,21.20
2023-05-07T13:25:57.253Z,21.10
2023-05-07T13:28:27.340Z,21.20
2023-05-07T13:30:56.102Z,21.40
2023-05-07T13:33:25.197Z,21.30
2023-05-07T13:35:52.214Z,21.20
2023-05-07T13:38:19.221Z,21.00
2023-05-07T13:40:46.505Z,21.00
2023-05-07T13:43:13.421Z,21.00
2023-05-07T13:45:42.917Z,21.10
2023-05-07T13:48:09.998Z,21.10
2023-05-07T13:50:36.991Z,21.20
2023-05-07T13:53:04.115Z,21.20
2023-05-07T13:55:31.309Z,21.20
2023-05-07T13:58:00.292Z,20.80
2023-05-07T14:00:28.122Z,20.90
2023-05-07T14:02:56.360Z,20.80
2023-05-07T14:05:24.338Z,20.80
2023-05-07T14:07:57.927Z,20.90
2023-05-07T14:10:25.701Z,20.60
2023-05-07T14:12:54.108Z,20.70
2023-05-07T14:15:21.402Z,20.80
2023-05-07T14:17:50.831Z,20.80
2023-05-07T14:20:18.211Z,20.60
2023-05-07T14:22:46.230Z,20.70
2023-05-07T14:25:14.208Z,20.70
2023-05-07T14:27:44.774Z,20.70
2023-05-07T14:30:12.471Z,20.70
2023-05-07T14:32:41.648Z,20.70
2023-05-07T14:35:09.582Z,20.70
2023-05-07T14:37:36.915Z,20.70
2023-05-07T14:40:04.302Z,20.80
2023-05-07T14:42:31.475Z,20.80
2023-05-07T14:44:58.519Z,21.00
2023-05-07T14:47:25.927Z,21.20
2023-05-07T14:49:54.096Z,21.20
2023-05-07T14:52:21.568Z,21.20
2023-05-07T14:54:50.127Z,21.10
2023-05-07T14:57:19.600Z,21.20
2023-05-07T14:59:48.648Z,21.00
2023-05-07T15:02:16.244Z,20.90
2023-05-07T15:04:47.127Z,20.80
2023-05-07T15:07:18.693Z,20.70
2023-05-07T15:09:46.395Z,20.60
2023-05-07T15:12:15.571Z,20.50
2023-05-07T15:14:42.556Z,20.60
2023-05-07T15:17:09.940Z,20.40
2023-05-07T15:19:36.966Z,20.40
2023-05-07T15:22:04.059Z,20.40
2023-05-07T15:24:31.801Z,20.30
2023-05-07T15:27:04.071Z,20.30
2023-05-07T15:29:31.491Z,20.30
2023-05-07T15:31:59.924Z,20.30
2023-05-07T15:34:27.554Z,20.10
2023-05-07T15:36:56.107Z,20.20
2023-05-07T15:39:25.085Z,20.20
2023-05-07T15:41:52.392Z,20.20
2023-05-07T15:44:19.373Z,20.20
2023-05-07T15:46:46.675Z,20.30
2023-05-07T15:49:13.663Z,20.40
2023-05-07T15:51:40.583Z,20.30
2023-05-07T15:54:07.744Z,20.40
2023-05-07T15:56:34.789Z,20.40
2023-05-07T15:59:02.671Z,20.50
2023-05-07T16:01:30.014Z,20.40
2023-05-07T16:03:57.307Z,20.30
2023-05-07T16:06:24.287Z,20.30
2023-05-07T16:08:51.297Z,20.40
2023-05-07T16:11:18.502Z,20.40
2023-05-07T16:13:45.530Z,20.40
2023-05-07T16:16:13.238Z,20.40
2023-05-07T16:18:40.216Z,20.30
2023-05-07T16:21:11.213Z,20.40
2023-05-07T16:23:38.174Z,20.30
2023-05-07T16:26:05.204Z,20.20
2023-05-07T16:28:32.188Z,20.30
2023-05-07T16:31:00.776Z,20.40
2023-05-07T16:33:27.943Z,20.30
2023-05-07T16:35:54.965Z,20.30
2023-05-07T16:38:22.015Z,20.20
2023-05-07T16:40:48.938Z,20.20
2023-05-07T16:43:16.097Z,20.10
2023-05-07T16:45:45.099Z,20.20
2023-05-07T16:48:12.370Z,20.20
2023-05-07T16:50:39.407Z,20.10
2023-05-07T16:53:07.341Z,20.10
2023-05-07T16:55:39.919Z,20.10
2023-05-07T16:58:07.875Z,20.00
2023-05-07T17:00:46.343Z,20.00
2023-05-07T17:03:16.827Z,20.00
2023-05-07T17:05:44.224Z,20.10
2023-05-07T17:08:11.154Z,20.10
2023-05-07T17:10:39.207Z,20.10
2023-05-07T17:13:06.756Z,20.10
2023-05-07T17:15:33.820Z,19.90
2023-05-07T17:18:01.035Z,20.00
2023-05-07T17:20:28.727Z,20.00
2023-05-07T17:22:55.803Z,20.00
2023-05-07T17:25:23.416Z,20.00
2023-05-07T17:27:50.725Z,20.10
2023-05-07T17:30:18.333Z,20.10
2023-05-07T17:32:45.646Z,20.10
2023-05-07T17:35:12.816Z,20.00
2023-05-07T17:37:40.887Z,20.00
2023-05-07T17:40:08.374Z,20.00
2023-05-07T17:42:35.487Z,20.00
2023-05-07T17:45:02.554Z,20.10
2023-05-07T17:47:29.763Z,20.10
2023-05-07T17:49:56.962Z,20.00
2023-05-07T17:52:26.617Z,20.00
2023-05-07T17:54:53.626Z,20.00
2023-05-07T17:57:23.348Z,20.00
2023-05-07T17:59:50.874Z,19.90
2023-05-07T18:02:17.965Z,19.80
2023-05-07T18:04:52.057Z,19.70
2023-05-07T18:07:19.012Z,19.80
2023-05-07T18:09:46.158Z,19.70
2023-05-07T18:12:13.496Z,19.50
2023-05-07T18:14:43.374Z,19.40
2023-05-07T18:17:13.287Z,19.30
2023-05-07T18:19:40.505Z,19.40
2023-05-07T18:22:07.622Z,19.50
2023-05-07T18:24:37.825Z,19.40
2023-05-07T18:27:06.233Z,19.40
2023-05-07T18:29:35.748Z,19.30
2023-05-07T18:32:02.919Z,19.10
2023-05-07T18:34:30.077Z,19.00
2023-05-07T18:36:58.237Z,19.00
2023-05-07T18:39:25.580Z,19.00
2023-05-07T18:41:55.993Z,19.00
2023-05-07T18:44:24.443Z,18.90
2023-05-07T18:46:51.411Z,18.80
2023-05-07T18:49:18.395Z,18.80
2023-05-07T18:51:45.775Z,18.80
2023-05-07T18:54:16.469Z,18.80
2023-05-07T18:56:43.799Z,18.60
2023-05-07T18:59:10.964Z,18.60
2023-05-07T19:01:39.304Z,18.60
2023-05-07T19:04:06.505Z,18.50
2023-05-07T19:06:33.827Z,18.50
2023-05-07T19:09:05.438Z,18.60
2023-05-07T19:11:33.822Z,18.50
2023-05-07T19:14:04.301Z,18.50
2023-05-07T19:16:34.530Z,18.50
2023-05-07T19:19:02.849Z,18.40
2023-05-07T19:21:30.212Z,18.40
2023-05-07T19:24:05.089Z,18.30
2023-05-07T19:26:32.095Z,18.30
2023-05-07T19:29:15.656Z,18.20
2023-05-07T19:31:45.082Z,18.20
2023-05-07T19:34:16.015Z,18.20
2023-05-07T19:36:43.423Z,18.20
2023-05-07T19:39:10.865Z,18.10
2023-05-07T19:41:37.887Z,18.20
2023-05-07T19:44:09.170Z,18.20
2023-05-07T19:46:37.262Z,18.20
2023-05-07T19:49:04.917Z,18.20
2023-05-07T19:51:33.320Z,18.20
2023-05-07T19:54:02.465Z,18.20
2023-05-07T19:56:29.731Z,18.10
2023-05-07T19:58:57.113Z,18.00
2023-05-07T20:01:24.156Z,18.00
2023-05-07T20:03:53.277Z,18.00
2023-05-07T20:06:23.667Z,18.00
2023-05-07T20:08:52.255Z,18.00
2023-05-07T20:11:19.982Z,17.90
2023-05-07T20:13:47.411Z,17.80
2023-05-07T20:16:15.535Z,17.80
2023-05-07T20:18:46.206Z,17.80
2023-05-07T20:21:14.448Z,17.80
2023-05-07T20:23:43.359Z,17.80
2023-05-07T20:26:10.388Z,17.70
2023-05-07T20:28:37.463Z,17.70
2023-05-07T20:31:05.166Z,17.70
2023-05-07T20:33:33.432Z,17.60
2023-05-07T20:36:01.933Z,17.60
2023-05-07T20:38:33.931Z,17.60
2023-05-07T20:41:09.993Z,17.60
2023-05-07T20:43:38.653Z,17.60
2023-05-07T20:46:07.705Z,17.50
2023-05-07T20:48:38.497Z,17.50
2023-05-07T20:51:05.509Z,17.50
2023-05-07T20:53:32.676Z,17.40
2023-05-07T20:55:59.754Z,17.50
2023-05-07T20:58:28.726Z,17.40
2023-05-07T21:00:57.961Z,17.40
2023-05-07T21:03:29.923Z,17.40
2023-05-07T21:05:59.909Z,17.40
2023-05-07T21:08:29.527Z,17.40
2023-05-07T21:10:58.091Z,17.40
2023-05-07T21:13:25.191Z,17.40
2023-05-07T21:15:52.664Z,17.40
2023-05-07T21:18:20.107Z,17.40
2023-05-07T21:20:47.277Z,17.50
2023-05-07T21:23:14.267Z,17.50
2023-05-07T21:25:41.719Z,17.40
2023-05-07T21:28:09.486Z,17.40
2023-05-07T21:30:37.242Z,17.30
2023-05-07T21:33:08.386Z,17.20
2023-05-07T21:35:37.361Z,17.20
2023-05-07T21:38:05.798Z,17.20
2023-05-07T21:40:35.700Z,17.20
2023-05-07T21:43:02.677Z,17.20
2023-05-07T21:45:29.669Z,17.20
2023-05-07T21:47:57.038Z,17.20
2023-05-07T21:50:24.098Z,17.20
2023-05-07T21:52:56.839Z,17.10
2023-05-07T21:55:24.022Z,17.10
2023-05-07T21:58:04.318Z,17.00
2023-05-07T22:00:33.616Z,17.00
2023-05-07T22:03:01.162Z,17.00
2023-05-07T22:05:28.714Z,17.10
2023-05-07T22:07:55.629Z,17.10
2023-05-07T22:10:23.073Z,17.10
2023-05-07T22:12:50.545Z,17.20
2023-05-07T22:15:17.978Z,17.10
2023-05-07T22:17:45.076Z,17.10
2023-05-07T22:20:12.641Z,17.00
2023-05-07T22:22:52.237Z,17.10
2023-05-07T22:25:20.938Z,17.10
2023-05-07T22:27:48.420Z,17.10
2023-05-07T22:30:15.800Z,17.10
2023-05-07T22:32:44.791Z,16.90
2023-05-07T22:35:12.117Z,16.90
2023-05-07T22:37:39.337Z,16.90
2023-05-07T22:40:07.067Z,16.90
2023-05-07T22:42:33.985Z,16.80
2023-05-07T22:45:00.911Z,16.80
2023-05-07T22:47:31.370Z,16.80
2023-05-07T22:49:58.492Z,16.80
2023-05-07T22:52:25.840Z,16.80
2023-05-07T22:54:52.893Z,16.80
2023-05-07T22:57:19.868Z,16.80
2023-05-07T22:59:46.951Z,16.80
2023-05-07T23:02:13.939Z,16.80
2023-05-07T23:04:41.125Z,16.80
2023-05-07T23:07:08.728Z,16.80
2023-05-07T23:09:35.784Z,16.80
2023-05-07T23:12:03.654Z,16.80
2023-05-07T23:14:30.882Z,16.80
2023-05-07T23:16:58.008Z,16.80
2023-05-07T23:19:25.118Z,16.80
2023-05-07T23:21:52.302Z,16.80
2023-05-07T23:24:20.709Z,16.80
2023-05-07T23:26:48.632Z,16.80
2023-05-07T23:29:15.666Z,16.80
2023-05-07T23:31:42.777Z,16.70
2023-05-07T23:34:12.507Z,16.70
2023-05-07T23:36:39.452Z,16.70
2023-05-07T23:39:06.524Z,16.70
2023-05-07T23:41:33.551Z,16.70
2023-05-07T23:44:00.505Z,16.70
2023-05-07T23:46:28.133Z,16.60
2023-05-07T23:48:55.065Z,16.60
2023-05-07T23:51:22.199Z,16.60
2023-05-07T23:53:49.161Z,16.50
2023-05-07T23:56:16.470Z,16.50
2023-05-07T23:58:43.485Z,16.40
